Time;durP1;ratioP1;P1;durP2;ratioP2;P2;SDS_P1;SDS_P2;PMS_P1;PMS_P2;Temp;Humidity;BMP_temperature;BMP_pressure;BME280_temperature;BME280_humidity;BME280_pressure;Samples;Min_cycle;Max_cycle;Signal;HPM_P1;HPM_P2
2023/12/26 00:00:58;;;;;;;9.88;1.20;;;;;;;;;;4971942;28;20408;-47
2023/12/26 00:03:28;;;;;;;8.65;1.00;;;;;;;;;;4964860;28;20054;-47
2023/12/26 00:05:55;;;;;;;12.85;1.08;;;;;;;;;;4984095;28;20694;-47
2023/12/26 00:08:23;;;;;;;7.70;1.05;;;;;;;;;;4969356;28;20030;-45
2023/12/26 00:10:51;;;;;;;10.67;1.30;;;;;;;;;;4986822;28;20497;-51
2023/12/26 00:13:19;;;;;;;12.40;1.35;;;;;;;;;;4966860;28;20397;-46
2023/12/26 00:15:47;;;;;;;14.15;1.50;;;;;;;;;;4979228;28;20045;-46
2023/12/26 00:18:16;;;;;;;11.70;1.02;;;;;;;;;;4978423;28;20045;-50
2023/12/26 00:20:44;;;;;;;10.63;0.95;;;;;;;;;;4977974;28;20133;-49
2023/12/26 00:23:13;;;;;;;7.40;1.03;;;;;;;;;;4978703;28;21651;-48
2023/12/26 00:25:44;;;;;;;14.10;1.65;;;;;;;;;;4958445;28;20544;-50
2023/12/26 00:28:13;;;;;;;11.50;1.08;;;;;;;;;;4976131;28;20038;-47
2023/12/26 00:30:41;;;;;;;13.18;1.00;;;;;;;;;;4891327;28;20566;-46
2023/12/26 00:33:09;;;;;;;14.32;1.13;;;;;;;;;;4972525;28;20714;-46
2023/12/26 00:35:38;;;;;;;8.57;0.73;;;;;;;;;;4974603;28;20419;-47
2023/12/26 00:38:06;;;;;;;7.90;0.70;;;;;;;;;;4972293;28;20052;-50
2023/12/26 00:40:39;;;;;;;12.40;0.60;;;;;;;;;;4977110;28;20120;-51
2023/12/26 00:43:07;;;;;;;11.32;1.35;;;;;;;;;;4969795;28;20171;-47
2023/12/26 00:45:35;;;;;;;11.48;1.00;;;;;;;;;;4974508;28;20050;-47
2023/12/26 00:48:03;;;;;;;11.07;1.20;;;;;;;;;;4969891;28;20037;-48
2023/12/26 00:50:31;;;;;;;12.90;1.10;;;;;;;;;;4967588;28;20033;-48
2023/12/26 00:53:03;;;;;;;9.57;1.38;;;;;;;;;;4970373;28;20610;-47
2023/12/26 00:55:31;;;;;;;10.23;1.17;;;;;;;;;;4983089;28;20661;-47
2023/12/26 00:57:59;;;;;;;8.82;1.05;;;;;;;;;;4966603;28;20077;-47
2023/12/26 01:00:26;;;;;;;7.37;0.90;;;;;;;;;;4981308;28;20056;-47
2023/12/26 01:02:54;;;;;;;9.60;1.70;;;;;;;;;;4971383;28;20033;-50
2023/12/26 01:05:23;;;;;;;10.18;1.08;;;;;;;;;;4966879;28;20540;-51
2023/12/26 01:07:50;;;;;;;8.80;1.35;;;;;;;;;;4975722;28;21521;-48
2023/12/26 01:10:19;;;;;;;13.95;1.33;;;;;;;;;;4986689;28;20416;-50
2023/12/26 01:12:47;;;;;;;11.13;1.00;;;;;;;;;;4984640;28;20037;-49
2023/12/26 01:15:17;;;;;;;9.82;0.80;;;;;;;;;;4966994;28;20424;-49
2023/12/26 01:17:45;;;;;;;9.77;0.93;;;;;;;;;;4978299;28;20042;-48
2023/12/26 01:20:13;;;;;;;22.98;1.42;;;;;;;;;;4974144;28;20117;-47
2023/12/26 01:22:41;;;;;;;9.80;0.88;;;;;;;;;;4963506;28;20053;-46
2023/12/26 01:25:11;;;;;;;10.37;1.00;;;;;;;;;;4990419;28;20064;-49
2023/12/26 01:27:40;;;;;;;13.90;1.55;;;;;;;;;;4984735;28;20397;-48
2023/12/26 01:30:08;;;;;;;8.57;1.00;;;;;;;;;;4870528;28;20128;-49
2023/12/26 01:32:36;;;;;;;16.65;1.00;;;;;;;;;;4981401;28;20081;-48
2023/12/26 01:35:04;;;;;;;11.50;1.17;;;;;;;;;;4974836;28;20040;-47
2023/12/26 01:37:32;;;;;;;11.17;1.17;;;;;;;;;;4978532;28;20045;-46
2023/12/26 01:40:00;;;;;;;9.02;1.27;;;;;;;;;;4969456;28;20050;-48
2023/12/26 01:42:28;;;;;;;14.02;1.40;;;;;;;;;;4973260;28;20479;-51
2023/12/26 01:44:57;;;;;;;9.80;1.58;;;;;;;;;;4975820;28;20101;-51
2023/12/26 01:47:25;;;;;;;12.73;1.77;;;;;;;;;;4966488;28;20149;-46
2023/12/26 01:49:53;;;;;;;14.00;1.87;;;;;;;;;;4980804;28;20042;-49
2023/12/26 01:52:21;;;;;;;12.00;1.33;;;;;;;;;;4972569;28;20068;-47
2023/12/26 01:54:49;;;;;;;10.88;1.13;;;;;;;;;;4973737;28;20034;-47
2023/12/26 01:57:17;;;;;;;20.65;1.52;;;;;;;;;;4990776;28;20057;-48
2023/12/26 01:59:44;;;;;;;11.25;1.45;;;;;;;;;;4970821;28;20126;-50
2023/12/26 02:02:15;;;;;;;20.33;1.53;;;;;;;;;;4983594;28;20044;-47
2023/12/26 02:04:43;;;;;;;14.48;1.60;;;;;;;;;;4981940;28;20099;-48
2023/12/26 02:07:11;;;;;;;13.05;1.15;;;;;;;;;;4974321;28;20036;-50
2023/12/26 02:09:41;;;;;;;11.15;1.30;;;;;;;;;;4966173;28;20042;-47
2023/12/26 02:12:09;;;;;;;15.27;1.30;;;;;;;;;;4977709;28;20042;-46
2023/12/26 02:14:37;;;;;;;12.63;1.00;;;;;;;;;;4967935;28;20453;-46
2023/12/26 02:17:08;;;;;;;12.80;1.27;;;;;;;;;;4976308;28;20070;-46
2023/12/26 02:19:42;;;;;;;9.20;1.25;;;;;;;;;;4995164;28;20887;-46
2023/12/26 02:22:10;;;;;;;11.23;0.85;;;;;;;;;;4975327;28;20052;-49
2023/12/26 02:24:42;;;;;;;11.20;2.08;;;;;;;;;;4975900;28;20152;-46
2023/12/26 02:27:12;;;;;;;11.80;1.63;;;;;;;;;;4969359;28;20471;-47
2023/12/26 02:29:41;;;;;;;15.27;1.20;;;;;;;;;;4922707;28;20234;-47
2023/12/26 02:32:10;;;;;;;13.77;1.20;;;;;;;;;;4924434;28;20443;-48
2023/12/26 02:34:38;;;;;;;10.82;0.80;;;;;;;;;;4940721;28;20475;-48
2023/12/26 02:37:07;;;;;;;11.48;1.10;;;;;;;;;;4974271;28;20042;-47
2023/12/26 02:39:35;;;;;;;15.73;1.97;;;;;;;;;;4967471;28;20512;-49
2023/12/26 02:42:05;;;;;;;11.32;1.00;;;;;;;;;;4962864;28;20053;-47
2023/12/26 02:44:32;;;;;;;11.13;0.93;;;;;;;;;;4965613;28;20488;-50
2023/12/26 02:47:00;;;;;;;13.43;1.20;;;;;;;;;;4975408;28;20523;-50
2023/12/26 02:49:28;;;;;;;19.52;1.92;;;;;;;;;;4957645;28;20042;-46
2023/12/26 02:51:56;;;;;;;11.63;1.53;;;;;;;;;;4978355;28;20056;-46
2023/12/26 02:54:23;;;;;;;9.05;1.45;;;;;;;;;;4971201;28;20412;-46
2023/12/26 02:56:51;;;;;;;12.80;1.50;;;;;;;;;;4961768;28;20049;-45
2023/12/26 02:59:20;;;;;;;14.25;1.73;;;;;;;;;;4966878;28;20125;-47
2023/12/26 03:01:48;;;;;;;18.13;2.03;;;;;;;;;;4977991;28;20046;-48
2023/12/26 03:04:17;;;;;;;11.97;2.27;;;;;;;;;;4956205;28;20527;-47
2023/12/26 03:06:45;;;;;;;13.27;1.27;;;;;;;;;;4978104;28;20066;-46
2023/12/26 03:09:12;;;;;;;12.90;1.67;;;;;;;;;;4982588;28;20060;-45
2023/12/26 03:11:40;;;;;;;20.65;1.95;;;;;;;;;;4976081;28;20045;-46
2023/12/26 03:14:08;;;;;;;12.73;1.25;;;;;;;;;;4975720;28;20042;-46
2023/12/26 03:16:37;;;;;;;10.50;0.77;;;;;;;;;;4970610;28;20125;-49
2023/12/26 03:19:05;;;;;;;9.95;1.00;;;;;;;;;;4982530;28;20447;-46
2023/12/26 03:21:33;;;;;;;10.52;1.20;;;;;;;;;;4975425;28;20052;-46
2023/12/26 03:24:01;;;;;;;6.43;0.70;;;;;;;;;;4981685;28;20046;-48
2023/12/26 03:26:28;;;;;;;8.23;0.80;;;;;;;;;;4967106;28;20050;-50
2023/12/26 03:29:00;;;;;;;13.97;0.87;;;;;;;;;;4952215;28;20034;-49
2023/12/26 03:31:28;;;;;;;12.00;1.10;;;;;;;;;;4923931;28;20041;-47
2023/12/26 03:33:57;;;;;;;13.65;1.10;;;;;;;;;;4982955;28;20056;-46
2023/12/26 03:36:25;;;;;;;10.10;0.70;;;;;;;;;;4972036;28;20134;-45
2023/12/26 03:38:53;;;;;;;11.80;1.45;;;;;;;;;;4971325;28;20038;-50
2023/12/26 03:41:20;;;;;;;10.67;0.90;;;;;;;;;;4980070;28;20049;-47
2023/12/26 03:43:48;;;;;;;11.70;1.75;;;;;;;;;;4979065;28;20049;-45
2023/12/26 03:46:16;;;;;;;11.45;0.70;;;;;;;;;;4974026;28;20034;-46
2023/12/26 03:48:44;;;;;;;13.05;1.30;;;;;;;;;;4989589;28;20041;-47
2023/12/26 03:51:15;;;;;;;13.73;0.95;;;;;;;;;;4980942;28;20152;-46
2023/12/26 03:53:43;;;;;;;8.83;1.33;;;;;;;;;;4978844;28;20101;-45
2023/12/26 03:56:11;;;;;;;10.98;0.90;;;;;;;;;;4985048;28;20129;-48
2023/12/26 03:58:58;;;;;;;7.35;0.65;;;;;;;;;;4984252;28;20046;-48
2023/12/26 04:01:26;;;;;;;6.65;0.90;;;;;;;;;;4986320;28;20057;-47
2023/12/26 04:03:53;;;;;;;12.27;1.20;;;;;;;;;;4963558;28;20049;-47
2023/12/26 04:06:23;;;;;;;17.33;1.20;;;;;;;;;;4987013;28;20092;-46
2023/12/26 04:08:52;;;;;;;11.48;1.35;;;;;;;;;;4973344;28;20104;-49
2023/12/26 04:11:21;;;;;;;11.38;1.02;;;;;;;;;;4987486;28;20051;-46
2023/12/26 04:13:50;;;;;;;11.63;0.77;;;;;;;;;;4979723;28;20034;-45
2023/12/26 04:16:18;;;;;;;7.68;0.82;;;;;;;;;;4985609;28;20061;-48
2023/12/26 04:18:46;;;;;;;9.87;0.93;;;;;;;;;;4973205;28;20048;-46
2023/12/26 04:21:14;;;;;;;14.50;0.88;;;;;;;;;;4993867;28;20060;-48
2023/12/26 04:23:47;;;;;;;15.43;1.17;;;;;;;;;;4984970;28;20393;-51
2023/12/26 04:26:15;;;;;;;10.18;0.88;;;;;;;;;;4981357;28;20042;-46
2023/12/26 04:28:44;;;;;;;9.35;0.75;;;;;;;;;;4988603;28;20053;-48
2023/12/26 04:31:12;;;;;;;7.33;0.80;;;;;;;;;;4877719;28;20500;-47
2023/12/26 04:33:40;;;;;;;7.70;0.85;;;;;;;;;;4980757;28;20050;-47
2023/12/26 04:36:08;;;;;;;21.33;1.48;;;;;;;;;;4980100;28;20046;-51
2023/12/26 04:38:54;;;;;;;11.75;0.80;;;;;;;;;;4977675;28;20163;-48
2023/12/26 04:41:22;;;;;;;9.40;0.85;;;;;;;;;;4980385;28;20599;-47
2023/12/26 04:43:50;;;;;;;9.93;0.77;;;;;;;;;;4979320;28;20480;-48
2023/12/26 04:46:18;;;;;;;10.43;1.10;;;;;;;;;;4967823;28;20116;-48
2023/12/26 04:48:46;;;;;;;9.40;0.95;;;;;;;;;;4972915;28;20045;-48
2023/12/26 04:51:17;;;;;;;12.55;2.22;;;;;;;;;;4978451;28;20407;-51
2023/12/26 04:53:45;;;;;;;7.05;0.85;;;;;;;;;;4954620;28;20100;-49
2023/12/26 04:56:18;;;;;;;11.67;0.83;;;;;;;;;;4943362;28;20957;-48
2023/12/26 04:58:47;;;;;;;8.60;0.82;;;;;;;;;;4983192;28;20048;-50
2023/12/26 05:01:16;;;;;;;7.90;0.80;;;;;;;;;;4964761;28;20439;-48
2023/12/26 05:03:44;;;;;;;11.55;0.98;;;;;;;;;;4986804;28;20038;-47
2023/12/26 05:06:12;;;;;;;11.18;1.08;;;;;;;;;;4976244;28;20599;-49
2023/12/26 05:08:41;;;;;;;13.20;1.33;;;;;;;;;;4974134;28;20194;-48
2023/12/26 05:11:09;;;;;;;12.73;1.30;;;;;;;;;;4975657;28;20405;-49
2023/12/26 05:13:58;;;;;;;12.35;0.90;;;;;;;;;;4988962;28;20508;-48
2023/12/26 05:16:29;;;;;;;10.00;0.93;;;;;;;;;;4978348;28;20049;-47
2023/12/26 05:18:57;;;;;;;13.75;1.10;;;;;;;;;;4963274;28;20584;-50
2023/12/26 05:21:26;;;;;;;9.53;1.23;;;;;;;;;;4982121;28;20034;-47
2023/12/26 05:23:53;;;;;;;10.52;1.25;;;;;;;;;;4970142;28;20733;-48
2023/12/26 05:26:21;;;;;;;8.88;1.08;;;;;;;;;;4970902;28;20058;-48
2023/12/26 05:28:49;;;;;;;8.50;1.27;;;;;;;;;;4959810;28;21254;-47
2023/12/26 05:31:20;;;;;;;20.75;1.88;;;;;;;;;;4883524;28;20053;-53
2023/12/26 05:33:48;;;;;;;13.43;2.00;;;;;;;;;;4988019;28;20058;-47
2023/12/26 05:36:16;;;;;;;11.40;1.27;;;;;;;;;;4977508;28;20057;-47
2023/12/26 05:38:44;;;;;;;13.77;1.38;;;;;;;;;;4974913;28;20037;-50
2023/12/26 05:41:12;;;;;;;8.93;0.90;;;;;;;;;;4974050;28;20517;-47
2023/12/26 05:43:40;;;;;;;14.18;1.75;;;;;;;;;;4980955;28;20046;-47
2023/12/26 05:46:07;;;;;;;12.57;1.33;;;;;;;;;;4984173;28;20039;-48
2023/12/26 05:48:37;;;;;;;8.65;1.25;;;;;;;;;;4963475;28;20034;-49
2023/12/26 05:51:06;;;;;;;13.85;1.80;;;;;;;;;;4975487;28;20060;-46
2023/12/26 05:53:34;;;;;;;16.58;2.22;;;;;;;;;;4963508;28;20080;-48
2023/12/26 05:56:01;;;;;;;16.00;1.25;;;;;;;;;;4978074;28;20794;-49
2023/12/26 05:58:29;;;;;;;15.80;2.13;;;;;;;;;;4971099;28;20045;-47
2023/12/26 06:00:57;;;;;;;16.00;1.38;;;;;;;;;;4963300;28;20054;-49
2023/12/26 06:03:25;;;;;;;16.65;1.70;;;;;;;;;;4968891;28;20042;-49
2023/12/26 06:05:55;;;;;;;10.27;1.40;;;;;;;;;;4972178;28;20060;-48
2023/12/26 06:08:26;;;;;;;13.38;1.73;;;;;;;;;;4971644;28;20042;-52
2023/12/26 06:10:54;;;;;;;10.23;1.70;;;;;;;;;;4975666;28;20073;-48
2023/12/26 06:13:22;;;;;;;15.13;1.67;;;;;;;;;;4970797;28;20038;-49
2023/12/26 06:15:50;;;;;;;12.30;1.30;;;;;;;;;;4974309;28;20046;-49
2023/12/26 06:18:18;;;;;;;15.10;1.42;;;;;;;;;;4962956;28;21317;-49
2023/12/26 06:20:47;;;;;;;14.43;1.55;;;;;;;;;;4980924;28;20120;-48
2023/12/26 06:23:18;;;;;;;7.20;1.00;;;;;;;;;;4976644;28;20488;-48
2023/12/26 06:25:46;;;;;;;13.45;1.10;;;;;;;;;;4965682;28;20042;-48
2023/12/26 06:28:13;;;;;;;10.93;1.40;;;;;;;;;;4978594;28;20052;-48
2023/12/26 06:30:41;;;;;;;10.60;1.23;;;;;;;;;;4867891;28;20057;-49
2023/12/26 06:33:09;;;;;;;15.75;1.35;;;;;;;;;;4981344;28;20124;-48
2023/12/26 06:35:38;;;;;;;10.23;1.20;;;;;;;;;;4963497;28;21768;-47
2023/12/26 06:38:12;;;;;;;11.90;1.27;;;;;;;;;;4977418;28;20452;-47
2023/12/26 06:40:42;;;;;;;10.98;1.45;;;;;;;;;;4961090;28;20436;-48
2023/12/26 06:43:10;;;;;;;9.25;1.45;;;;;;;;;;4972190;28;20033;-49
2023/12/26 06:45:38;;;;;;;14.25;1.92;;;;;;;;;;4963125;28;20068;-47
2023/12/26 06:48:06;;;;;;;11.87;1.43;;;;;;;;;;4974634;28;20043;-47
2023/12/26 06:50:34;;;;;;;15.65;1.40;;;;;;;;;;4963888;28;20046;-51
2023/12/26 06:53:02;;;;;;;10.18;1.77;;;;;;;;;;4966701;28;20397;-47
2023/12/26 06:55:30;;;;;;;12.18;1.15;;;;;;;;;;4956917;28;20050;-52
2023/12/26 06:57:59;;;;;;;11.50;1.33;;;;;;;;;;4965960;28;20103;-49
2023/12/26 07:00:27;;;;;;;12.83;1.27;;;;;;;;;;4966451;28;20046;-47
2023/12/26 07:02:55;;;;;;;10.55;1.55;;;;;;;;;;4970187;28;20119;-49
2023/12/26 07:05:24;;;;;;;15.57;1.17;;;;;;;;;;4963398;28;20049;-49
2023/12/26 07:08:07;;;;;;;14.25;2.00;;;;;;;;;;4979367;28;20054;-47
2023/12/26 07:10:34;;;;;;;11.45;1.45;;;;;;;;;;4970809;28;20045;-48
2023/12/26 07:13:04;;;;;;;6.93;0.90;;;;;;;;;;4973267;28;20103;-48
2023/12/26 07:15:31;;;;;;;12.38;1.30;;;;;;;;;;4981184;28;20065;-51
2023/12/26 07:17:59;;;;;;;8.10;1.05;;;;;;;;;;4963366;28;20038;-48
2023/12/26 07:20:27;;;;;;;14.25;1.33;;;;;;;;;;4971302;28;20038;-49
2023/12/26 07:22:55;;;;;;;8.73;1.08;;;;;;;;;;4968778;28;20132;-46
2023/12/26 07:25:23;;;;;;;8.90;1.03;;;;;;;;;;4969116;28;20041;-49
2023/12/26 07:27:51;;;;;;;7.93;0.80;;;;;;;;;;4976026;28;20038;-48
2023/12/26 07:30:23;;;;;;;10.07;0.85;;;;;;;;;;4888235;28;20038;-47
2023/12/26 07:32:52;;;;;;;11.50;0.80;;;;;;;;;;4971244;28;20123;-47
2023/12/26 07:35:20;;;;;;;12.35;1.48;;;;;;;;;;4966762;28;20042;-49
2023/12/26 07:37:50;;;;;;;8.33;0.73;;;;;;;;;;4978118;28;20468;-49
2023/12/26 07:40:19;;;;;;;11.85;1.10;;;;;;;;;;4982972;28;20654;-49
2023/12/26 07:42:47;;;;;;;9.93;1.10;;;;;;;;;;4978415;28;20087;-47
2023/12/26 07:45:15;;;;;;;17.75;1.50;;;;;;;;;;4974173;28;20594;-50
2023/12/26 07:47:44;;;;;;;12.95;1.42;;;;;;;;;;4971580;28;20052;-49
2023/12/26 07:50:13;;;;;;;11.43;0.93;;;;;;;;;;4980059;28;20100;-49
2023/12/26 07:52:41;;;;;;;13.48;1.05;;;;;;;;;;4973708;28;20041;-48
2023/12/26 07:55:08;;;;;;;12.63;1.23;;;;;;;;;;4979994;28;20413;-47
2023/12/26 07:57:36;;;;;;;15.10;1.35;;;;;;;;;;4975732;28;20371;-50
2023/12/26 08:00:04;;;;;;;8.60;0.70;;;;;;;;;;4989934;28;20033;-48
2023/12/26 08:02:32;;;;;;;11.53;0.80;;;;;;;;;;4963246;28;20040;-50
2023/12/26 08:05:01;;;;;;;10.35;0.80;;;;;;;;;;4961240;28;20037;-48
2023/12/26 08:07:29;;;;;;;10.60;0.90;;;;;;;;;;4967042;28;20040;-47
2023/12/26 08:09:58;;;;;;;9.98;1.60;;;;;;;;;;4988976;28;20054;-47
2023/12/26 08:12:27;;;;;;;10.60;1.00;;;;;;;;;;4988564;28;20525;-47
2023/12/26 08:14:55;;;;;;;8.73;0.70;;;;;;;;;;4978656;28;20030;-51
2023/12/26 08:17:23;;;;;;;12.70;1.17;;;;;;;;;;4979479;28;20120;-47
2023/12/26 08:19:51;;;;;;;9.38;0.93;;;;;;;;;;4961001;28;20050;-49
2023/12/26 08:22:20;;;;;;;8.10;1.58;;;;;;;;;;4987229;28;20052;-48
2023/12/26 08:24:48;;;;;;;16.77;1.48;;;;;;;;;;4974327;28;20136;-47
2023/12/26 08:27:18;;;;;;;8.53;0.50;;;;;;;;;;4982737;28;20044;-47
2023/12/26 08:29:46;;;;;;;11.18;0.70;;;;;;;;;;4928584;28;20038;-48
2023/12/26 08:32:14;;;;;;;9.57;1.42;;;;;;;;;;4924368;28;20060;-47
2023/12/26 08:34:44;;;;;;;8.13;0.60;;;;;;;;;;4983216;28;20042;-47
2023/12/26 08:37:12;;;;;;;9.48;0.90;;;;;;;;;;4965076;28;20045;-47
2023/12/26 08:39:41;;;;;;;17.03;1.60;;;;;;;;;;4982504;28;20073;-51
2023/12/26 08:42:09;;;;;;;12.13;0.68;;;;;;;;;;4964585;28;20066;-47
2023/12/26 08:44:36;;;;;;;8.65;0.98;;;;;;;;;;4975856;28;20053;-47
2023/12/26 08:47:04;;;;;;;12.93;1.50;;;;;;;;;;4974521;28;20535;-46
2023/12/26 08:49:49;;;;;;;8.48;0.55;;;;;;;;;;4987536;28;20053;-47
2023/12/26 08:52:18;;;;;;;10.27;0.83;;;;;;;;;;4969282;28;20042;-48
2023/12/26 08:54:47;;;;;;;6.95;0.80;;;;;;;;;;5000622;28;20388;-49
2023/12/26 08:57:15;;;;;;;13.82;1.13;;;;;;;;;;4967016;28;20048;-46
2023/12/26 08:59:43;;;;;;;14.52;1.23;;;;;;;;;;4983601;28;20103;-49
2023/12/26 09:02:11;;;;;;;12.88;1.35;;;;;;;;;;4966595;28;20138;-49
2023/12/26 09:04:38;;;;;;;13.47;0.73;;;;;;;;;;4982890;28;20046;-46
2023/12/26 09:07:06;;;;;;;10.98;1.10;;;;;;;;;;4967553;28;20592;-46
2023/12/26 09:09:34;;;;;;;12.07;1.20;;;;;;;;;;4988783;28;20068;-47
2023/12/26 09:12:03;;;;;;;14.85;1.67;;;;;;;;;;4976902;28;20038;-50
2023/12/26 09:14:31;;;;;;;8.20;1.13;;;;;;;;;;4980737;28;20114;-46
2023/12/26 09:16:59;;;;;;;9.37;0.93;;;;;;;;;;4978813;28;20042;-47
2023/12/26 09:19:28;;;;;;;11.40;1.02;;;;;;;;;;4976627;28;20049;-47
2023/12/26 09:21:56;;;;;;;14.57;1.48;;;;;;;;;;4976317;28;20092;-49
2023/12/26 09:24:24;;;;;;;13.75;0.70;;;;;;;;;;4982186;28;20046;-48
2023/12/26 09:26:53;;;;;;;9.55;1.67;;;;;;;;;;4973007;28;20052;-51
2023/12/26 09:29:22;;;;;;;9.73;0.80;;;;;;;;;;4936473;28;20526;-47
2023/12/26 09:31:50;;;;;;;11.85;0.57;;;;;;;;;;4930639;28;20670;-46
2023/12/26 09:34:18;;;;;;;12.68;1.00;;;;;;;;;;4956856;28;20127;-46
2023/12/26 09:36:46;;;;;;;12.45;1.00;;;;;;;;;;4980436;28;20042;-50
2023/12/26 09:39:13;;;;;;;12.73;1.02;;;;;;;;;;4968471;28;20954;-49
2023/12/26 09:41:43;;;;;;;6.93;0.80;;;;;;;;;;4975817;28;20038;-50
2023/12/26 09:44:11;;;;;;;12.65;1.38;;;;;;;;;;4958260;28;20859;-49
2023/12/26 09:46:40;;;;;;;13.27;1.50;;;;;;;;;;4979844;28;20042;-49
2023/12/26 09:49:09;;;;;;;10.50;1.05;;;;;;;;;;4953056;28;20048;-46
2023/12/26 09:51:44;;;;;;;8.27;1.70;;;;;;;;;;4970905;28;20046;-46
2023/12/26 09:54:13;;;;;;;12.70;1.33;;;;;;;;;;4974209;28;20035;-48
2023/12/26 09:56:41;;;;;;;10.55;0.80;;;;;;;;;;4970989;28;20581;-50
2023/12/26 09:59:10;;;;;;;8.68;1.02;;;;;;;;;;4973788;28;20484;-47
2023/12/26 10:01:38;;;;;;;13.95;1.10;;;;;;;;;;4967608;28;20081;-50
2023/12/26 10:04:07;;;;;;;11.60;1.17;;;;;;;;;;4967962;28;20096;-48
2023/12/26 10:06:35;;;;;;;9.23;1.30;;;;;;;;;;4967064;28;20053;-48
2023/12/26 10:09:04;;;;;;;10.93;1.05;;;;;;;;;;4985302;28;20037;-47
2023/12/26 10:11:32;;;;;;;12.57;1.10;;;;;;;;;;4968569;28;20052;-48
2023/12/26 10:14:00;;;;;;;9.90;0.85;;;;;;;;;;4984385;28;20140;-46
2023/12/26 10:16:28;;;;;;;7.05;0.77;;;;;;;;;;4961023;28;20141;-47
2023/12/26 10:18:56;;;;;;;10.97;1.07;;;;;;;;;;4970911;28;20126;-46
2023/12/26 10:21:25;;;;;;;10.93;0.95;;;;;;;;;;4951704;28;20046;-48
2023/12/26 10:23:53;;;;;;;7.90;0.65;;;;;;;;;;4984449;28;20465;-49
2023/12/26 10:26:21;;;;;;;11.32;1.13;;;;;;;;;;4973303;28;20038;-48
2023/12/26 10:28:52;;;;;;;11.32;1.00;;;;;;;;;;4968604;28;20056;-46
2023/12/26 10:31:26;;;;;;;7.60;1.10;;;;;;;;;;4929648;28;20038;-46
2023/12/26 10:33:55;;;;;;;11.05;1.08;;;;;;;;;;4970348;28;20280;-48
2023/12/26 10:36:24;;;;;;;10.27;1.35;;;;;;;;;;4972449;28;20041;-47
2023/12/26 10:38:52;;;;;;;8.25;0.85;;;;;;;;;;4968387;28;20065;-50
2023/12/26 10:41:24;;;;;;;15.63;1.48;;;;;;;;;;4971425;28;20046;-47
2023/12/26 10:43:55;;;;;;;14.40;1.03;;;;;;;;;;4976206;28;20128;-47
2023/12/26 10:46:24;;;;;;;6.95;0.60;;;;;;;;;;4962443;28;20034;-47
2023/12/26 10:48:53;;;;;;;11.70;1.40;;;;;;;;;;4970823;28;20066;-46
2023/12/26 10:51:24;;;;;;;10.07;1.20;;;;;;;;;;4975623;28;20037;-48
2023/12/26 10:53:56;;;;;;;12.23;1.10;;;;;;;;;;4964850;28;20042;-47
2023/12/26 10:56:24;;;;;;;11.60;1.40;;;;;;;;;;4968611;28;20073;-49
2023/12/26 10:58:53;;;;;;;10.70;0.95;;;;;;;;;;4968105;28;20042;-48
2023/12/26 13:53:28;;;;;;;13.55;1.33;;;;;;;;;;4973976;28;20136;-47
2023/12/26 13:56:14;;;;;;;10.23;0.95;;;;;;;;;;4965057;28;21120;-47
2023/12/26 13:59:01;;;;;;;12.30;1.67;;;;;;;;;;4964090;28;20029;-47
2023/12/26 14:01:49;;;;;;;12.07;1.33;;;;;;;;;;4980996;28;20046;-44
2023/12/26 14:04:37;;;;;;;12.52;1.73;;;;;;;;;;4978977;28;20041;-47
2023/12/26 14:07:25;;;;;;;9.65;1.38;;;;;;;;;;4970613;28;20965;-48
2023/12/26 14:10:12;;;;;;;10.00;1.38;;;;;;;;;;4974184;28;20061;-46
2023/12/26 14:12:58;;;;;;;10.27;1.23;;;;;;;;;;4983578;28;20133;-44
2023/12/26 14:15:44;;;;;;;12.25;2.10;;;;;;;;;;4974363;28;20052;-49
2023/12/26 14:18:31;;;;;;;7.45;1.35;;;;;;;;;;4978358;28;20054;-47
2023/12/26 14:21:17;;;;;;;14.63;1.88;;;;;;;;;;4967719;28;20434;-47
2023/12/26 14:24:04;;;;;;;10.85;1.45;;;;;;;;;;4971662;28;20037;-49
2023/12/26 14:26:50;;;;;;;12.83;1.37;;;;;;;;;;4979727;28;20049;-46
2023/12/26 14:29:37;;;;;;;11.63;1.63;;;;;;;;;;4895316;28;20046;-49
2023/12/26 14:32:23;;;;;;;12.95;1.77;;;;;;;;;;4921277;28;20061;-47
2023/12/26 14:35:10;;;;;;;10.38;1.50;;;;;;;;;;4968481;28;20046;-47
2023/12/26 14:37:56;;;;;;;14.55;1.70;;;;;;;;;;4972760;28;20128;-47
2023/12/26 14:40:43;;;;;;;10.17;1.70;;;;;;;;;;4981524;28;20041;-47
2023/12/26 14:43:31;;;;;;;14.20;1.40;;;;;;;;;;4978230;28;20042;-45
2023/12/26 14:46:18;;;;;;;13.82;1.52;;;;;;;;;;4956713;28;20492;-46
2023/12/26 14:49:07;;;;;;;12.82;1.40;;;;;;;;;;4987148;28;20038;-47
2023/12/26 14:51:56;;;;;;;17.10;1.67;;;;;;;;;;4974283;28;20460;-44
2023/12/26 14:54:42;;;;;;;14.47;1.27;;;;;;;;;;4970219;28;20038;-48
2023/12/26 14:57:28;;;;;;;10.40;0.93;;;;;;;;;;4973122;28;20052;-49
2023/12/26 15:00:16;;;;;;;13.15;1.75;;;;;;;;;;4981916;28;20125;-49
2023/12/26 15:02:46;;;;;;;12.70;1.73;;;;;;;;;;4986901;28;20058;-49
2023/12/26 15:05:16;;;;;;;11.90;1.60;;;;;;;;;;4967108;28;20138;-47
2023/12/26 15:07:44;;;;;;;11.97;2.17;;;;;;;;;;4979643;28;20077;-47
2023/12/26 15:10:13;;;;;;;12.80;2.05;;;;;;;;;;4975707;28;20073;-49
2023/12/26 15:12:41;;;;;;;15.50;1.80;;;;;;;;;;4981716;28;20041;-49
2023/12/26 15:15:13;;;;;;;14.05;2.05;;;;;;;;;;4987420;28;20558;-47
2023/12/26 15:17:43;;;;;;;13.10;2.80;;;;;;;;;;4962719;28;20053;-50
2023/12/26 15:20:13;;;;;;;13.50;3.00;;;;;;;;;;4980704;28;20062;-47
2023/12/26 15:22:40;;;;;;;18.85;2.95;;;;;;;;;;4967512;28;21111;-46
2023/12/26 15:25:08;;;;;;;15.15;3.80;;;;;;;;;;4980648;28;20045;-47
2023/12/26 15:27:36;;;;;;;16.48;3.40;;;;;;;;;;4965718;28;20045;-47
2023/12/26 15:30:05;;;;;;;17.02;5.18;;;;;;;;;;4876050;28;20516;-46
2023/12/26 15:32:33;;;;;;;21.37;5.20;;;;;;;;;;4969395;28;20049;-47
2023/12/26 15:35:04;;;;;;;17.38;5.40;;;;;;;;;;4979308;28;20489;-47
2023/12/26 15:37:33;;;;;;;17.35;4.65;;;;;;;;;;4961810;28;20038;-48
2023/12/26 15:40:02;;;;;;;18.52;3.88;;;;;;;;;;4981477;28;20042;-46
2023/12/26 15:42:30;;;;;;;13.55;3.13;;;;;;;;;;4967588;28;20048;-47
2023/12/26 15:44:58;;;;;;;13.47;2.83;;;;;;;;;;4969803;28;20043;-48
2023/12/26 15:47:26;;;;;;;13.05;3.03;;;;;;;;;;4963550;28;20041;-49
2023/12/26 15:49:54;;;;;;;13.35;3.80;;;;;;;;;;4981948;28;20045;-50
2023/12/26 15:52:21;;;;;;;15.35;3.53;;;;;;;;;;4968921;28;20640;-47
2023/12/26 15:54:51;;;;;;;12.52;3.17;;;;;;;;;;4983377;28;20050;-48
2023/12/26 15:57:19;;;;;;;14.23;2.87;;;;;;;;;;4970314;28;20069;-47
2023/12/26 15:59:46;;;;;;;12.07;3.03;;;;;;;;;;4980735;28;20564;-48
2023/12/26 16:02:14;;;;;;;14.15;4.13;;;;;;;;;;4960133;28;20048;-50
2023/12/26 16:04:43;;;;;;;15.63;3.15;;;;;;;;;;4977062;28;20123;-47
2023/12/26 16:07:11;;;;;;;17.30;3.75;;;;;;;;;;4968556;28;20038;-49
2023/12/26 16:09:39;;;;;;;12.93;3.60;;;;;;;;;;4977648;28;20510;-47
2023/12/26 16:12:09;;;;;;;16.95;3.58;;;;;;;;;;4960525;28;20043;-48
2023/12/26 16:14:36;;;;;;;16.00;4.70;;;;;;;;;;4980556;28;20038;-46
2023/12/26 16:17:04;;;;;;;15.07;4.30;;;;;;;;;;4976072;28;20041;-52
2023/12/26 16:19:32;;;;;;;14.02;3.50;;;;;;;;;;4967862;28;20040;-46
2023/12/26 16:22:00;;;;;;;12.47;3.47;;;;;;;;;;4975166;28;20030;-47
2023/12/26 16:24:30;;;;;;;15.23;3.15;;;;;;;;;;4977231;28;20044;-47
2023/12/26 16:27:02;;;;;;;10.40;2.47;;;;;;;;;;4974912;28;20140;-47
2023/12/26 16:29:31;;;;;;;15.10;3.60;;;;;;;;;;4933063;28;20034;-46
2023/12/26 16:31:59;;;;;;;17.10;3.55;;;;;;;;;;4927134;28;20103;-46
2023/12/26 16:34:27;;;;;;;18.70;4.20;;;;;;;;;;4967360;28;20296;-46
2023/12/26 16:36:55;;;;;;;11.10;3.45;;;;;;;;;;4984148;28;20515;-47
2023/12/26 16:39:23;;;;;;;16.38;3.78;;;;;;;;;;4973792;28;20117;-48
2023/12/26 16:41:59;;;;;;;30.83;6.63;;;;;;;;;;4978486;28;20040;-52
2023/12/26 16:44:29;;;;;;;44.35;9.40;;;;;;;;;;4980480;28;20046;-49
2023/12/26 16:46:58;;;;;;;46.97;8.73;;;;;;;;;;4978814;28;20533;-47
2023/12/26 16:49:26;;;;;;;40.92;7.35;;;;;;;;;;4979602;28;20037;-49
2023/12/26 16:51:54;;;;;;;18.45;4.22;;;;;;;;;;4986271;28;20345;-50
2023/12/26 16:54:22;;;;;;;17.10;3.40;;;;;;;;;;4966315;28;20041;-47
2023/12/26 16:56:50;;;;;;;10.30;3.08;;;;;;;;;;4972974;28;20110;-46
2023/12/26 16:59:18;;;;;;;18.70;4.40;;;;;;;;;;4970281;28;20041;-47
2023/12/26 17:01:45;;;;;;;11.73;3.20;;;;;;;;;;4971280;28;20135;-47
2023/12/26 17:04:16;;;;;;;12.18;3.78;;;;;;;;;;4975980;28;20161;-48
2023/12/26 17:06:46;;;;;;;13.13;3.35;;;;;;;;;;4973962;28;20050;-49
2023/12/26 17:09:15;;;;;;;13.15;3.67;;;;;;;;;;4980720;28;20037;-46
2023/12/26 17:11:44;;;;;;;16.60;3.07;;;;;;;;;;4971818;28;20038;-48
2023/12/26 17:14:12;;;;;;;11.50;2.72;;;;;;;;;;4978391;28;20129;-48
2023/12/26 17:16:40;;;;;;;11.18;3.00;;;;;;;;;;4972175;28;20058;-46
2023/12/26 17:19:09;;;;;;;11.95;2.58;;;;;;;;;;4984675;28;20046;-48
2023/12/26 17:21:41;;;;;;;12.18;2.95;;;;;;;;;;4976905;28;20140;-46
2023/12/26 17:24:09;;;;;;;15.60;2.57;;;;;;;;;;4966614;28;20563;-46
2023/12/26 17:26:38;;;;;;;12.38;2.60;;;;;;;;;;4976798;28;20862;-50
2023/12/26 17:29:06;;;;;;;11.68;2.50;;;;;;;;;;4927698;28;20042;-47
2023/12/26 17:31:34;;;;;;;11.85;2.55;;;;;;;;;;4928941;28;20042;-47
2023/12/26 17:34:02;;;;;;;13.60;2.75;;;;;;;;;;4973553;28;20056;-45
2023/12/26 17:36:30;;;;;;;11.50;3.13;;;;;;;;;;4976957;28;20058;-47
2023/12/26 17:39:00;;;;;;;15.32;3.20;;;;;;;;;;4969644;28;20088;-49
2023/12/26 17:41:28;;;;;;;14.70;3.88;;;;;;;;;;4983004;28;20128;-47